• Join FlightAware (Why Join?)
  • Login
  • US Flag 
12:56AM EDT


 

Airport Tracker/Info


-or-


 

Live Flight TrackerFlight Track Log ✈ EJA831 ✈ 04-Oct-2013 ✈ MBPV / PLS - KPBI

Flight Track Log - Related Links

Times and Time Zones

All times are in EDT time to prevent confusion due to time zone crossing. See the EJA831 flight status page for this flight to view local times or setup timezone preferences in your user account.

Time Position Orientation Groundspeed Altitude Reporting Facility
EDT Latitude Longitude Course Direction KTS MPH feet Rate Location/Type
10:33AM 21.7722 -72.1647 301° West 383 441 5,600  Level Miami Center
10:34AM 21.8428 -72.1556 North 235 270 6,400 1,740 Climbing Miami Center
10:35AM 21.8911 -72.2278 306° West 194 223 9,100 2,820 Climbing Miami Center
10:36AM 21.9414 -72.3042 305° West 245 282 12,100 2,760 Climbing Miami Center
10:37AM 21.9894 -72.3786 305° West 282 325 14,700 2,520 Climbing Miami Center
10:38AM 22.0397 -72.4575 305° West 308 354 17,200 2,220 Climbing Miami Center
10:39AM 22.1162 -72.7746 301° West  Level Estimated
10:39AM 22.0919 -72.5364 306° West 321 369 19,200  Level Miami Center
10:40AM 22.1467 -72.6197 305° West 332 382 21,200 1,980 Climbing Miami Center
10:41AM 22.2033 -72.7033 306° West 337 388 23,200 1,740 Climbing Miami Center
10:42AM 22.2597 -72.7889 305° West 343 395 24,700 1,500 Climbing Miami Center
10:43AM 22.3122 -72.8769 303° West 348 400 26,200 1,500 Climbing Miami Center
10:44AM 22.3708 -72.9650 306° West 354 407 27,700 1,200 Climbing Miami Center
10:45AM 22.4125 -73.0356 303° West 354 407 28,600 1,020 Climbing Miami Center
10:46AM 22.4903 -73.1411 309° West 368 423 29,800 1,080 Climbing Miami Center
10:47AM 22.5508 -73.2317 306° West 373 429 30,800 1,020 Climbing Miami Center
10:48AM 22.6075 -73.3267 303° West 373 429 31,900 1,200 Climbing Miami Center
10:49AM 22.6681 -73.4219 305° West 373 429 33,200 1,380 Climbing Miami Center
10:50AM 22.7244 -73.5128 304° West 373 429 34,700 1,500 Climbing Miami Center
10:51AM 22.7828 -73.6014 306° West 367 422 36,200 1,500 Climbing Miami Center
10:52AM 22.8431 -73.6853 308° West 362 417 37,700 1,380 Climbing Miami Center
10:53AM 22.8950 -73.7719 303° West 357 411 39,000 1,200 Climbing Miami Center
10:54AM 22.9508 -73.8542 306° West 347 399 40,200 1,080 Climbing Miami Center
10:55AM 23.0028 -73.9408 303° West 347 399 41,200 900 Climbing Miami Center
10:56AM 23.0567 -74.0278 304° West 347 399 42,000 600 Climbing Miami Center
10:57AM 23.1975 -74.0811 341° North 465 535 42,500 480 Climbing Miami Center
10:58AM 23.1642 -74.2017 253° West 383 441 43,000 240 Climbing Miami Center
10:59AM 23.2244 -74.2931 306° West 371 427 43,000  Level Miami Center
11:00AM 23.2844 -74.3867 305° West 371 427 43,000  Level Miami Center
11:01AM 23.3444 -74.4831 304° West 377 434 43,000  Level Miami Center
11:02AM 23.4086 -74.5792 306° West 388 447 43,000  Level Miami Center
11:03AM 23.4664 -74.6778 303° West 394 453 43,000  Level Miami Center
11:04AM 23.5306 -74.7764 305° West 394 453 43,000  Level Miami Center
11:05AM 23.5925 -74.8750 304° West 394 453 43,000  Level Miami Center
11:06AM 23.6544 -74.9717 305° West 394 453 43,000  Level Miami Center
11:07AM 23.7161 -75.0706 304° West 394 453 43,000  Level Miami Center
11:08AM 23.7758 -75.1672 304° West 394 453 43,000  Level Miami Center
11:09AM 23.8375 -75.2619 305° West 394 453 43,000  Level Miami Center
11:10AM 23.8969 -75.3611 303° West 394 453 43,000  Level Miami Center
11:11AM 23.9544 -75.4581 303° West 394 453 43,000  Level Miami Center
11:12AM 24.0181 -75.5531 306° West 394 453 43,000  Level Miami Center
11:13AM 24.0753 -75.6481 303° West 394 453 43,000  Level Miami Center
11:14AM 24.1344 -75.7453 304° West 394 453 43,000  Level Miami Center
11:15AM 24.1917 -75.8428 303° West 389 448 43,000  Level Miami Center
11:16AM 24.2508 -75.9358 305° West 389 448 43,000  Level Miami Center
11:17AM 24.3078 -76.0311 303° West 389 448 43,000  Level Miami Center
11:18AM 24.3647 -76.1242 304° West 384 442 43,000  Level Miami Center
11:19AM 24.4194 -76.2175 303° West 374 430 43,000  Level Miami Center
11:20AM 24.4742 -76.3064 304° West 369 425 43,000  Level Miami Center
11:21AM 24.5225 -76.3883 303° West 364 419 43,000  Level Miami Center
11:22AM 24.5792 -76.4794 304° West 364 419 43,000  Level Miami Center
11:23AM 24.6358 -76.5731 304° West 364 419 43,000  Level Miami Center
11:24AM 24.6883 -76.6644 302° West 364 419 43,000  Level Miami Center
11:25AM 24.7258 -76.7672 292° West 364 419 43,000 -600 Level Miami Center
11:26AM 24.7614 -76.8725 290° West 364 419 41,900 -1,500 Descending Miami Center
11:27AM 24.8053 -76.9756 295° West 369 425 40,100 -1,800 Descending Miami Center
11:28AM 24.8681 -77.0672 307° West 369 425 38,300 -1,920 Descending Miami Center
11:29AM 24.9264 -77.1614 304° West 376 433 36,300 -2,040 Descending Miami Center
11:30AM 24.9889 -77.2578 306° West 381 438 34,300 -2,040 Descending Miami Center
11:31AM 25.0533 -77.3567 306° West 381 438 32,300 -2,160 Descending Miami Center
11:32AM 25.1239 -77.4717 304° West 402 463 30,000 -2,100 Descending Miami Center
11:33AM 25.1925 -77.5800 305° West 415 478 28,100 -1,020 Descending Miami Center
11:34AM 25.2547 -77.6792 305° West 415 478 28,000 -60 Descending Miami Center
11:35AM 25.3189 -77.7806 305° West 415 478 28,000  Level Miami Center
11:36AM 25.3808 -77.8822 304° West 415 478 28,000  Level Miami Center
11:37AM 25.4469 -77.9864 305° West 415 478 28,000  Level Miami Center
11:38AM 25.5131 -78.0908 305° West 415 478 28,000  Level Miami Center
11:39AM 25.5769 -78.1950 304° West 420 483 28,000  Level Miami Center
11:40AM 25.6447 -78.2994 306° West 420 483 28,000  Level Miami Center
11:41AM 25.7086 -78.4042 304° West 420 483 28,000 -960 Level Miami Center
11:42AM 25.7722 -78.5086 304° West 420 483 26,100 -2,040 Descending Miami Center
11:43AM 25.8358 -78.6067 306° West 410 472 24,000 -2,100 Descending Miami Center
11:44AM 25.8931 -78.7114 301° West 403 464 21,900 -1,980 Descending Miami Center
11:45AM 25.9544 -78.8069 306° West 392 451 20,100 -1,020 Descending Miami Center
11:46AM 26.0075 -78.9028 302° West 379 436 19,900 -900 Descending Miami Center
11:47AM 26.0586 -78.9844 305° West 373 429 18,300 -1,680 Descending Miami Center
11:48AM 26.0842 -79.0892 285° West 361 415 16,600 -1,800 Descending Miami Center
11:49AM 26.0764 -79.1953 265° West 344 396 14,800 -2,100 Descending Miami Center
11:50AM 26.0953 -79.3044 281° West 344 396 12,400 -2,340 Descending Miami Center
11:51AM 26.1656 -79.3614 324° Northwest 310 357 10,200 -2,220 Descending Miami Center
11:52AM 26.2314 -79.4114 326° Northwest 296 341 8,000 -2,100 Descending Miami Center
11:53AM 26.2789 -79.4519 323° Northwest 255 293 6,100 -1,500 Descending Miami Center
11:54AM 26.3425 -79.5042 324° Northwest 247 284 5,000 -600 Descending Miami Center
11:55AM 26.3853 -79.5656 308° West 256 295 5,000 -60 Level Miami Center
11:56AM 26.4278 -79.6408 302° West 275 316 4,900 -540 Descending Miami Center
11:57AM 26.4642 -79.7042 303° West 275 316 4,000 -480 Descending Miami Center
11:58AM 26.5086 -79.7819 303° West 270 311 4,000  Level Miami Center
11:59AM 26.5450 -79.8456 303° West 270 311 4,000  Level Miami Center
12:00PM 26.5831 -79.9231 299° West 270 311 4,000  Level Miami Center
12:01PM 26.5856 -79.9928 272° West 257 296 4,000 -300 Level Miami Center
12:02PM 26.5922 -80.0814 275° West 262 302 3,400 -600 Descending Miami Center
12:04PM 26.6667 -80.0833 299° West  Level FlightAware Approximate
12:11PM 26.6832 -80.0956 299° West  Level Estimated
12:12PM 26.6832 -80.0956 299° West  Level Estimated
12:13PM 26.6832 -80.0956 299° West  Level Estimated
12:14PM 26.6832 -80.0956 299° West  Level Estimated
12:15PM 26.6832 -80.0956 299° West  Level Estimated
12:16PM 26.6832 -80.0956 299° West  Level Estimated
12:17PM 26.6832 -80.0956 299° West  Level Estimated